world map with EGC marked

EGC - Airport

This information may not be accurate or current and is not valid for navigation or flight planning. No warranty of fitness for any purpose is made or implied.

flag of Aquitaineflag of France

Donate via PayPal

Additional information is available on the NEW Great Circle Mapper

Location
City:  Bergerac, Aquitaine, France
Name:Bergerac-Roumanière Airport
ICAO / IATA:LFBE / EGC

Details
Type:Airport (Aerodrome, Airfield)
Use:Public/Civil
Latitude:44°49'28"N (44.824431)
Longitude:0°31'14"E (0.520525)
Elevation:171 ft (52 m)
Runways:2
Longest:7234 × 148 ft (2205 × 45 m)

Time
Timezone:UTC+1 (DST+4)
Local Time:

Weather
METAR:LFBE  240830Z AUTO 05003KT 320V100 9999 FEW035 22/13 Q1022 NOSIG
TAF:LFBE  240500Z 2406/2506 30005KT CAVOK TEMPO 2407/2412 BKN035= TAF LFBH 240500Z 2406/2506 32008KT 9999 BKN020 BECMG 2413/2415 CAVOK BECMG 2418/2420 BKN020

Related Locations
Nearby:
Farthest:CHT: 12273 mi / 19752 km
Waitangi [Tuuta], CIT, NZ

Find:

   beyond  
but within

Other Information
Maps:
Sources:

  


 


Great Circle Mapper   Great Circle Mapper
Great Circle Mapper FAQ   Great Circle Mapper FAQ
  Karl's Home Page
KLS²   KLS² Home
   GC on Facebook
Airlines of the World   Airlines of the World
Donate via PayPal


Copyright © 2004-2017, Karl L. Swartz. All rights reserved.
All trademarks mentioned herein belong to their respective owners.

Please see credits for attribution and copyright information.

Karl Swartz <karl@kls2.com>
  Powered by FreeBSD
Valid HTML 4.01!
Labeled with ICRA
hCard Microformat
Geo Microformat